createdAt,value
2022-11-20T00:00:23.267Z,13
2022-11-20T00:01:23.266Z,13
2022-11-20T00:02:23.322Z,13
2022-11-20T00:03:23.274Z,13
2022-11-20T00:04:23.285Z,12
2022-11-20T00:05:23.269Z,12
2022-11-20T00:06:23.290Z,12
2022-11-20T00:07:23.356Z,12
2022-11-20T00:08:23.268Z,14
2022-11-20T00:09:23.566Z,12
2022-11-20T00:10:23.322Z,13
2022-11-20T00:11:23.260Z,13
2022-11-20T00:12:23.295Z,13
2022-11-20T00:13:23.262Z,13
2022-11-20T00:14:23.260Z,12
2022-11-20T00:15:23.267Z,13
2022-11-20T00:16:23.278Z,13
2022-11-20T00:17:23.338Z,13
2022-11-20T00:18:23.314Z,12
2022-11-20T00:19:23.465Z,12
2022-11-20T00:20:23.270Z,13
2022-11-20T00:21:23.279Z,12
2022-11-20T00:22:23.306Z,12
2022-11-20T00:23:23.267Z,13
2022-11-20T00:24:23.268Z,12
2022-11-20T00:25:23.317Z,13
2022-11-20T00:26:23.310Z,13
2022-11-20T00:27:23.352Z,15
2022-11-20T00:28:23.426Z,12
2022-11-20T00:29:23.544Z,11
2022-11-20T00:30:23.547Z,13
2022-11-20T00:31:23.422Z,13
2022-11-20T00:32:23.357Z,13
2022-11-20T00:33:23.524Z,12
2022-11-20T00:34:23.418Z,12
2022-11-20T00:35:23.663Z,12
2022-11-20T00:36:23.274Z,13
2022-11-20T00:37:23.602Z,12
2022-11-20T00:38:23.267Z,12
2022-11-20T00:39:23.617Z,13
2022-11-20T00:40:23.266Z,12
2022-11-20T00:41:23.347Z,13
2022-11-20T00:42:23.399Z,12
2022-11-20T00:43:23.260Z,12
2022-11-20T00:44:23.263Z,15
2022-11-20T00:45:23.264Z,12
2022-11-20T00:46:23.274Z,13
2022-11-20T00:47:23.281Z,13
2022-11-20T00:48:23.268Z,12
2022-11-20T00:49:23.562Z,13
2022-11-20T00:50:23.257Z,13
2022-11-20T00:51:23.266Z,13
2022-11-20T00:52:23.326Z,12
2022-11-20T00:53:23.275Z,11
2022-11-20T00:54:23.283Z,12
2022-11-20T00:55:23.363Z,12
2022-11-20T00:56:23.268Z,12
2022-11-20T00:57:23.327Z,13
2022-11-20T00:58:23.265Z,13
2022-11-20T00:59:23.554Z,13
2022-11-20T01:00:23.269Z,13
2022-11-20T01:01:23.374Z,12
2022-11-20T01:02:23.280Z,12
2022-11-20T01:03:27.042Z,12
2022-11-20T01:04:23.330Z,12
2022-11-20T01:05:23.322Z,11
2022-11-20T01:06:23.275Z,12
2022-11-20T01:07:23.355Z,12
2022-11-20T01:08:23.335Z,12
2022-11-20T01:09:23.646Z,13
2022-11-20T01:10:23.350Z,13
2022-11-20T01:11:23.278Z,12
2022-11-20T01:12:29.333Z,13
2022-11-20T01:13:25.772Z,12
2022-11-20T01:14:23.260Z,13
2022-11-20T01:15:23.401Z,13
2022-11-20T01:16:23.258Z,13
2022-11-20T01:17:23.301Z,14
2022-11-20T01:18:23.270Z,12
2022-11-20T01:19:23.632Z,12
2022-11-20T01:20:23.296Z,13
2022-11-20T01:21:23.319Z,13
2022-11-20T01:22:23.355Z,13
2022-11-20T01:23:23.261Z,12
2022-11-20T01:24:23.259Z,13
2022-11-20T01:25:23.267Z,12
2022-11-20T01:26:23.317Z,12
2022-11-20T01:27:23.385Z,13
2022-11-20T01:28:23.318Z,12
2022-11-20T01:29:23.747Z,13
2022-11-20T01:30:23.294Z,13
2022-11-20T01:31:23.267Z,13
2022-11-20T01:32:23.323Z,13
2022-11-20T01:33:23.261Z,13
2022-11-20T01:34:23.333Z,12
2022-11-20T01:35:23.261Z,12
2022-11-20T01:36:23.418Z,12
2022-11-20T01:37:23.297Z,13
2022-11-20T01:38:23.269Z,12
2022-11-20T01:39:23.707Z,12
2022-11-20T01:40:23.316Z,12
2022-11-20T01:41:23.264Z,13
2022-11-20T01:42:23.289Z,13
2022-11-20T01:43:23.377Z,12
2022-11-20T01:44:23.296Z,11
2022-11-20T01:45:23.249Z,13
2022-11-20T01:46:23.273Z,12
2022-11-20T01:47:23.281Z,12
2022-11-20T01:48:23.274Z,13
2022-11-20T01:49:23.699Z,13
2022-11-20T01:50:23.251Z,12
2022-11-20T01:51:23.296Z,12
2022-11-20T01:52:23.359Z,13
2022-11-20T01:53:23.263Z,13
2022-11-20T01:54:23.273Z,12
2022-11-20T01:55:23.270Z,11
2022-11-20T01:56:23.329Z,13
2022-11-20T01:57:23.280Z,13
2022-11-20T01:58:23.276Z,12
2022-11-20T01:59:23.525Z,12
2022-11-20T02:00:23.346Z,11
2022-11-20T02:01:23.350Z,13
2022-11-20T02:02:23.327Z,13
2022-11-20T02:03:23.264Z,13
2022-11-20T02:04:23.246Z,13
2022-11-20T02:05:23.251Z,13
2022-11-20T02:06:23.268Z,13
2022-11-20T02:07:23.389Z,13
2022-11-20T02:08:23.299Z,12
2022-11-20T02:09:23.731Z,12
2022-11-20T02:10:23.262Z,13
2022-11-20T02:11:23.269Z,12
2022-11-20T02:12:23.277Z,14
2022-11-20T02:13:23.355Z,13
2022-11-20T02:14:23.341Z,12
2022-11-20T02:15:27.635Z,13
2022-11-20T02:16:23.292Z,13
2022-11-20T02:17:23.284Z,13
2022-11-20T02:18:23.261Z,13
2022-11-20T02:19:23.520Z,13
2022-11-20T02:20:23.280Z,12
2022-11-20T02:21:23.328Z,13
2022-11-20T02:22:23.332Z,12
2022-11-20T02:23:23.467Z,12
2022-11-20T02:24:23.302Z,12
2022-11-20T02:25:23.327Z,13
2022-11-20T02:26:23.414Z,13
2022-11-20T02:27:23.388Z,12
2022-11-20T02:28:23.270Z,13
2022-11-20T02:29:23.448Z,13
2022-11-20T02:30:23.260Z,13
2022-11-20T02:31:23.332Z,13
2022-11-20T02:32:23.269Z,13
2022-11-20T02:33:23.254Z,13
2022-11-20T02:34:23.267Z,14
2022-11-20T02:35:23.255Z,14
2022-11-20T02:36:23.289Z,13
2022-11-20T02:37:23.305Z,13
2022-11-20T02:38:23.406Z,14
2022-11-20T02:39:23.540Z,12
2022-11-20T02:40:23.330Z,14
2022-11-20T02:41:23.311Z,13
2022-11-20T02:42:23.296Z,13
2022-11-20T02:43:23.251Z,14
2022-11-20T02:44:23.275Z,14
2022-11-20T02:45:23.260Z,13
2022-11-20T02:46:23.311Z,13
2022-11-20T02:47:23.378Z,14
2022-11-20T02:48:25.205Z,13
2022-11-20T02:49:23.592Z,13
2022-11-20T02:50:23.254Z,13
2022-11-20T02:51:23.258Z,13
2022-11-20T02:52:23.425Z,13
2022-11-20T02:53:23.257Z,13
2022-11-20T02:54:23.320Z,13
2022-11-20T02:55:23.288Z,13
2022-11-20T02:56:23.252Z,12
2022-11-20T02:57:23.259Z,13
2022-11-20T02:58:23.267Z,13
2022-11-20T02:59:23.729Z,14
2022-11-20T03:00:23.265Z,13
2022-11-20T03:01:23.320Z,13
2022-11-20T03:02:23.319Z,13
2022-11-20T03:03:23.344Z,13
2022-11-20T03:04:23.254Z,13
2022-11-20T03:05:23.255Z,13
2022-11-20T03:06:23.247Z,12
2022-11-20T03:07:23.377Z,13
2022-11-20T03:08:23.273Z,12
2022-11-20T03:09:23.586Z,13
2022-11-20T03:10:23.424Z,13
2022-11-20T03:11:23.258Z,12
2022-11-20T03:12:23.330Z,13
2022-11-20T03:13:23.256Z,11
2022-11-20T03:14:23.307Z,12
2022-11-20T03:15:23.271Z,12
2022-11-20T03:16:23.263Z,12
2022-11-20T03:17:23.326Z,12
2022-11-20T03:18:23.296Z,12
2022-11-20T03:19:23.699Z,11
2022-11-20T03:20:23.260Z,12
2022-11-20T03:21:23.264Z,11
2022-11-20T03:22:23.288Z,12
2022-11-20T03:23:23.278Z,12
2022-11-20T03:24:23.246Z,12
2022-11-20T03:25:23.397Z,11
2022-11-20T03:26:23.295Z,12
2022-11-20T03:27:23.291Z,12
2022-11-20T03:28:23.315Z,12
2022-11-20T03:29:23.509Z,12
2022-11-20T03:30:27.676Z,12
2022-11-20T03:31:23.265Z,13
2022-11-20T03:32:23.276Z,12
2022-11-20T03:33:23.330Z,12
2022-11-20T03:34:23.296Z,13
2022-11-20T03:35:23.373Z,13
2022-11-20T03:36:23.312Z,13
2022-11-20T03:37:23.574Z,12
2022-11-20T03:38:23.266Z,13
2022-11-20T03:39:23.574Z,14
2022-11-20T03:40:23.288Z,12
2022-11-20T03:41:23.308Z,13
2022-11-20T03:42:23.305Z,12
2022-11-20T03:43:23.254Z,13
2022-11-20T03:44:23.288Z,13
2022-11-20T03:45:23.269Z,13
2022-11-20T03:46:23.329Z,13
2022-11-20T03:47:23.342Z,14
2022-11-20T03:48:23.262Z,15
2022-11-20T03:49:23.566Z,13
2022-11-20T03:50:23.292Z,12
2022-11-20T03:51:23.388Z,13
2022-11-20T03:52:23.279Z,13
2022-11-20T03:53:23.282Z,13
2022-11-20T03:54:23.250Z,12
2022-11-20T03:55:23.382Z,12
2022-11-20T03:56:23.253Z,13
2022-11-20T03:57:23.322Z,13
2022-11-20T03:58:23.296Z,12
2022-11-20T03:59:23.633Z,14
2022-11-20T04:00:23.273Z,13
2022-11-20T04:01:23.327Z,12
2022-11-20T04:02:23.262Z,13
2022-11-20T04:03:23.259Z,13
2022-11-20T04:04:23.247Z,13
2022-11-20T04:05:23.304Z,13
2022-11-20T04:06:23.262Z,13
2022-11-20T04:07:23.342Z,12
2022-11-20T04:08:23.248Z,12
2022-11-20T04:09:23.823Z,12
2022-11-20T04:10:23.256Z,13
2022-11-20T04:11:23.300Z,13
2022-11-20T04:12:23.333Z,13
2022-11-20T04:13:23.306Z,13
2022-11-20T04:14:23.245Z,13
2022-11-20T04:15:23.258Z,12
2022-11-20T04:16:23.256Z,12
2022-11-20T04:17:23.276Z,12
2022-11-20T04:18:23.250Z,13
2022-11-20T04:19:23.615Z,12
2022-11-20T04:20:23.285Z,12
2022-11-20T04:21:23.347Z,13
2022-11-20T04:22:23.290Z,12
2022-11-20T04:23:28.474Z,13
2022-11-20T04:24:23.260Z,13
2022-11-20T04:25:23.268Z,13
2022-11-20T04:26:23.260Z,14
2022-11-20T04:27:23.263Z,13
2022-11-20T04:28:23.303Z,13
2022-11-20T04:29:23.763Z,13
2022-11-20T04:30:23.250Z,13
2022-11-20T04:31:23.256Z,13
2022-11-20T04:32:23.268Z,13
2022-11-20T04:33:23.334Z,13
2022-11-20T04:34:23.414Z,13
2022-11-20T04:35:23.621Z,13
2022-11-20T04:36:23.368Z,13
2022-11-20T04:37:23.327Z,13
2022-11-20T04:38:23.356Z,12
2022-11-20T04:39:23.741Z,14
2022-11-20T04:40:23.254Z,13
2022-11-20T04:41:23.273Z,13
2022-11-20T04:42:23.340Z,12
2022-11-20T04:43:23.258Z,13
2022-11-20T04:44:23.301Z,12
2022-11-20T04:45:23.405Z,13
2022-11-20T04:46:23.247Z,13
2022-11-20T04:47:23.279Z,13
2022-11-20T04:48:23.324Z,12
2022-11-20T04:49:23.582Z,13
2022-11-20T04:50:23.250Z,12
2022-11-20T04:51:23.255Z,13
2022-11-20T04:52:23.330Z,12
2022-11-20T04:53:23.261Z,13
2022-11-20T04:54:23.239Z,13
2022-11-20T04:55:23.277Z,13
2022-11-20T04:56:23.269Z,13
2022-11-20T04:57:23.276Z,13
2022-11-20T04:58:23.252Z,13
2022-11-20T04:59:23.837Z,12
2022-11-20T05:00:23.329Z,13
2022-11-20T05:01:23.396Z,13
2022-11-20T05:02:23.278Z,13
2022-11-20T05:03:23.253Z,13
2022-11-20T05:04:23.253Z,12
2022-11-20T05:05:23.247Z,13
2022-11-20T05:06:23.256Z,13
2022-11-20T05:07:23.492Z,14
2022-11-20T05:08:23.299Z,13
2022-11-20T05:09:23.530Z,13
2022-11-20T05:10:23.249Z,13
2022-11-20T05:11:23.273Z,12
2022-11-20T05:12:23.290Z,13
2022-11-20T05:13:23.250Z,14
2022-11-20T05:14:23.241Z,14
2022-11-20T05:15:23.312Z,14
2022-11-20T05:16:23.308Z,13
2022-11-20T05:17:23.439Z,13
2022-11-20T05:18:23.284Z,14
2022-11-20T05:19:23.433Z,13
2022-11-20T05:20:23.241Z,13
2022-11-20T05:21:23.252Z,14
2022-11-20T05:22:23.281Z,13
2022-11-20T05:23:23.291Z,13
2022-11-20T05:24:23.319Z,12
2022-11-20T05:25:23.264Z,13
2022-11-20T05:26:23.251Z,15
2022-11-20T05:27:23.273Z,14
2022-11-20T05:28:23.287Z,15
2022-11-20T05:29:23.576Z,14
2022-11-20T05:30:23.249Z,15
2022-11-20T05:31:26.671Z,15
2022-11-20T05:32:23.311Z,16
2022-11-20T05:33:23.261Z,15
2022-11-20T05:34:23.260Z,16
2022-11-20T05:35:23.254Z,16
2022-11-20T05:36:23.245Z,16
2022-11-20T05:37:23.270Z,14
2022-11-20T05:38:23.264Z,16
2022-11-20T05:39:23.574Z,16
2022-11-20T05:40:23.251Z,15
2022-11-20T05:41:23.265Z,13
2022-11-20T05:42:23.275Z,14
2022-11-20T05:43:23.270Z,13
2022-11-20T05:44:23.254Z,15
2022-11-20T05:45:23.263Z,15
2022-11-20T05:46:28.373Z,15
2022-11-20T05:47:23.312Z,15
2022-11-20T05:48:23.247Z,14
2022-11-20T05:49:23.487Z,15
2022-11-20T05:50:23.281Z,15
2022-11-20T05:51:23.314Z,15
2022-11-20T05:52:23.244Z,15
2022-11-20T05:53:23.277Z,15
2022-11-20T05:54:23.304Z,14
2022-11-20T05:55:23.286Z,14
2022-11-20T05:56:23.241Z,15
2022-11-20T05:57:23.277Z,16
2022-11-20T05:58:23.254Z,14
2022-11-20T05:59:23.470Z,14
2022-11-20T06:00:23.280Z,14
2022-11-20T06:01:23.245Z,13
2022-11-20T06:02:23.373Z,13
2022-11-20T06:03:23.285Z,14
2022-11-20T06:04:23.245Z,14
2022-11-20T06:05:23.287Z,13
2022-11-20T06:06:23.264Z,14
2022-11-20T06:07:23.275Z,13
2022-11-20T06:08:23.263Z,14
2022-11-20T06:09:23.487Z,14
2022-11-20T06:10:23.297Z,14
2022-11-20T06:11:23.295Z,16
2022-11-20T06:12:23.257Z,15
2022-11-20T06:13:23.257Z,13
2022-11-20T06:14:23.241Z,15
2022-11-20T06:15:23.247Z,16
2022-11-20T06:16:23.313Z,16
2022-11-20T06:17:23.272Z,15
2022-11-20T06:18:23.392Z,16
2022-11-20T06:19:23.549Z,14
2022-11-20T06:20:23.241Z,15
2022-11-20T06:21:23.271Z,16
2022-11-20T06:22:23.267Z,15
2022-11-20T06:23:23.267Z,14
2022-11-20T06:24:23.253Z,14
2022-11-20T06:25:23.261Z,15
2022-11-20T06:26:23.345Z,15
2022-11-20T06:27:23.282Z,16
2022-11-20T06:28:23.262Z,15
2022-11-20T06:29:23.621Z,15
2022-11-20T06:30:23.243Z,15
2022-11-20T06:31:23.328Z,15
2022-11-20T06:32:23.406Z,15
2022-11-20T06:33:23.467Z,16
2022-11-20T06:34:23.301Z,14
2022-11-20T06:35:23.541Z,13
2022-11-20T06:36:23.623Z,14
2022-11-20T06:37:23.490Z,15
2022-11-20T06:38:23.584Z,14
2022-11-20T06:39:23.877Z,15
2022-11-20T06:40:23.240Z,14
2022-11-20T06:41:23.747Z,14
2022-11-20T06:42:23.615Z,14
2022-11-20T06:43:23.245Z,14
2022-11-20T06:44:23.243Z,14
2022-11-20T06:45:23.244Z,14
2022-11-20T06:46:23.238Z,13
2022-11-20T06:47:23.279Z,14
2022-11-20T06:48:23.247Z,14
2022-11-20T06:49:23.620Z,14
2022-11-20T06:50:23.292Z,13
2022-11-20T06:51:23.238Z,13
2022-11-20T06:52:23.296Z,14
2022-11-20T06:53:23.259Z,15
2022-11-20T06:54:23.243Z,15
2022-11-20T06:55:23.238Z,14
2022-11-20T06:56:23.238Z,15
2022-11-20T06:57:23.305Z,16
2022-11-20T06:58:23.313Z,15
2022-11-20T06:59:23.511Z,15
2022-11-20T07:00:23.243Z,15
2022-11-20T07:01:23.299Z,15
2022-11-20T07:02:23.267Z,14
2022-11-20T07:03:23.290Z,17
2022-11-20T07:04:23.239Z,16
2022-11-20T07:05:23.297Z,15
2022-11-20T07:06:23.379Z,16
2022-11-20T07:07:23.312Z,16
2022-11-20T07:08:23.265Z,14
2022-11-20T07:09:23.706Z,15
2022-11-20T07:10:23.236Z,16
2022-11-20T07:11:23.328Z,16
2022-11-20T07:12:23.260Z,15
2022-11-20T07:13:23.288Z,16
2022-11-20T07:14:23.306Z,17
2022-11-20T07:15:23.228Z,14
2022-11-20T07:16:23.235Z,15
2022-11-20T07:17:23.260Z,15
2022-11-20T07:18:23.250Z,16
2022-11-20T07:19:23.488Z,14
2022-11-20T07:20:23.249Z,15
2022-11-20T07:21:23.308Z,14
2022-11-20T07:22:23.248Z,13
2022-11-20T07:23:23.270Z,14
2022-11-20T07:24:23.254Z,15
2022-11-20T07:25:23.246Z,15
2022-11-20T07:26:23.243Z,15
2022-11-20T07:27:23.255Z,16
2022-11-20T07:28:23.281Z,15
2022-11-20T07:29:23.496Z,16
2022-11-20T07:30:23.238Z,15
2022-11-20T07:31:23.232Z,15
2022-11-20T07:32:23.243Z,15
2022-11-20T07:33:23.255Z,15
2022-11-20T07:34:23.228Z,15
2022-11-20T07:35:23.254Z,14
2022-11-20T07:36:23.277Z,15
2022-11-20T07:37:23.287Z,15
2022-11-20T07:38:23.252Z,15
2022-11-20T07:39:23.745Z,14
2022-11-20T07:40:23.232Z,15
2022-11-20T07:41:23.240Z,15
2022-11-20T07:42:23.253Z,17
2022-11-20T07:43:23.245Z,14
2022-11-20T07:44:23.295Z,15
2022-11-20T07:45:23.295Z,17
2022-11-20T07:46:23.242Z,18
2022-11-20T07:47:23.410Z,18
2022-11-20T07:48:23.240Z,18
2022-11-20T07:49:23.481Z,17
2022-11-20T07:50:23.294Z,18
2022-11-20T07:51:23.242Z,16
2022-11-20T07:52:23.289Z,15
2022-11-20T07:53:23.289Z,15
2022-11-20T07:54:23.251Z,15
2022-11-20T07:55:23.224Z,15
2022-11-20T07:56:23.234Z,15
2022-11-20T07:57:28.143Z,14
2022-11-20T07:58:23.251Z,15
2022-11-20T07:59:23.415Z,14
2022-11-20T08:00:23.306Z,14
2022-11-20T08:01:23.294Z,15
2022-11-20T08:02:23.268Z,14
2022-11-20T08:03:24.878Z,15
2022-11-20T08:04:23.259Z,13
2022-11-20T08:05:23.239Z,14
2022-11-20T08:06:23.238Z,15
2022-11-20T08:07:23.296Z,14
2022-11-20T08:08:23.312Z,13
2022-11-20T08:09:23.513Z,14
2022-11-20T08:10:23.244Z,13
2022-11-20T08:11:23.256Z,14
2022-11-20T08:12:23.272Z,13
2022-11-20T08:13:23.243Z,14
2022-11-20T08:14:23.237Z,14
2022-11-20T08:15:23.281Z,13
2022-11-20T08:16:27.994Z,14
2022-11-20T08:17:23.254Z,15
2022-11-20T08:18:31.323Z,14
2022-11-20T08:19:23.404Z,13
2022-11-20T08:20:23.237Z,13
2022-11-20T08:21:23.237Z,13
2022-11-20T08:22:23.272Z,13
2022-11-20T08:23:23.334Z,14
2022-11-20T08:24:23.276Z,13
2022-11-20T08:25:23.246Z,13
2022-11-20T08:26:23.232Z,15
2022-11-20T08:27:23.271Z,26
2022-11-20T08:28:23.236Z,20
2022-11-20T08:29:23.387Z,16
2022-11-20T08:30:23.250Z,16
2022-11-20T08:31:23.307Z,17
2022-11-20T08:32:23.301Z,17
2022-11-20T08:33:23.304Z,16
2022-11-20T08:34:23.236Z,15
2022-11-20T08:35:23.409Z,15
2022-11-20T08:36:23.254Z,16
2022-11-20T08:37:23.293Z,14
2022-11-20T08:38:23.633Z,16
2022-11-20T08:39:23.739Z,17
2022-11-20T08:40:23.511Z,15
2022-11-20T08:41:23.563Z,16
2022-11-20T08:42:23.253Z,15
2022-11-20T08:43:23.232Z,16
2022-11-20T08:44:23.239Z,16
2022-11-20T08:45:23.284Z,16
2022-11-20T08:46:23.254Z,17
2022-11-20T08:47:23.313Z,17
2022-11-20T08:48:23.282Z,15
2022-11-20T08:49:23.461Z,15
2022-11-20T08:50:23.327Z,16
2022-11-20T08:51:23.246Z,16
2022-11-20T08:52:23.245Z,15
2022-11-20T08:53:23.330Z,18
2022-11-20T08:54:23.238Z,14
2022-11-20T08:55:23.297Z,19
2022-11-20T08:56:23.273Z,20
2022-11-20T08:57:23.261Z,17
2022-11-20T08:58:23.241Z,16
2022-11-20T08:59:43.756Z,15
2022-11-20T09:00:23.351Z,15
2022-11-20T09:01:23.382Z,15
2022-11-20T09:02:23.254Z,15
2022-11-20T09:03:23.308Z,18
2022-11-20T09:04:23.242Z,15
2022-11-20T09:05:23.232Z,15
2022-11-20T09:06:23.237Z,16
2022-11-20T09:07:23.310Z,15
2022-11-20T09:08:23.265Z,16
2022-11-20T09:09:23.476Z,17
2022-11-20T09:10:24.635Z,16
2022-11-20T09:11:23.404Z,15
2022-11-20T09:12:23.280Z,15
2022-11-20T09:13:23.241Z,17
2022-11-20T09:14:23.225Z,15
2022-11-20T09:15:23.235Z,19
2022-11-20T09:16:23.239Z,17
2022-11-20T09:17:23.254Z,15
2022-11-20T09:18:23.287Z,17
2022-11-20T09:19:38.744Z,16
2022-11-20T09:20:23.231Z,16
2022-11-20T09:21:23.320Z,15
2022-11-20T09:22:23.260Z,15
2022-11-20T09:23:23.269Z,18
2022-11-20T09:24:23.231Z,16
2022-11-20T09:25:23.245Z,17
2022-11-20T09:26:23.258Z,22
2022-11-20T09:27:23.303Z,22
2022-11-20T09:28:23.275Z,21
2022-11-20T09:29:23.705Z,19
2022-11-20T09:30:23.263Z,18
2022-11-20T09:31:23.295Z,16
2022-11-20T09:32:23.263Z,15
2022-11-20T09:33:23.251Z,17
2022-11-20T09:34:23.316Z,16
2022-11-20T09:35:23.267Z,17
2022-11-20T09:36:23.251Z,17
2022-11-20T09:37:23.250Z,19
2022-11-20T09:38:23.261Z,17
2022-11-20T09:39:23.755Z,16
2022-11-20T09:40:23.283Z,18
2022-11-20T09:41:23.309Z,18
2022-11-20T09:42:23.294Z,17
2022-11-20T09:43:23.436Z,18
2022-11-20T09:44:23.242Z,21
2022-11-20T09:45:23.241Z,20
2022-11-20T09:46:23.232Z,20
2022-11-20T09:47:23.258Z,22
2022-11-20T09:48:23.314Z,21
2022-11-20T09:49:27.533Z,21
2022-11-20T09:50:23.322Z,22
2022-11-20T09:51:23.276Z,20
2022-11-20T09:52:23.259Z,20
2022-11-20T09:53:23.259Z,19
2022-11-20T09:54:23.254Z,19
2022-11-20T09:55:23.262Z,19
2022-11-20T09:56:23.242Z,18
2022-11-20T09:57:23.262Z,20
2022-11-20T09:58:23.286Z,19
2022-11-20T09:59:23.549Z,19
2022-11-20T10:00:23.243Z,21
2022-11-20T10:01:23.403Z,22
2022-11-20T10:02:23.323Z,20
2022-11-20T10:03:23.229Z,20
2022-11-20T10:04:23.245Z,20
2022-11-20T10:05:23.287Z,20
2022-11-20T10:06:23.278Z,20
2022-11-20T10:07:32.361Z,19
2022-11-20T10:08:23.349Z,22
2022-11-20T10:09:23.593Z,22
2022-11-20T10:10:23.233Z,21
2022-11-20T10:11:23.316Z,20
2022-11-20T10:12:23.313Z,21
2022-11-20T10:13:23.414Z,18
2022-11-20T10:14:23.288Z,18
2022-11-20T10:15:23.222Z,19
2022-11-20T10:16:23.265Z,19
2022-11-20T10:17:23.252Z,19
2022-11-20T10:18:23.231Z,20
2022-11-20T10:19:23.551Z,21
2022-11-20T10:20:23.236Z,20
2022-11-20T10:21:23.287Z,18
2022-11-20T10:22:23.294Z,19
2022-11-20T10:23:26.034Z,19
2022-11-20T10:24:23.238Z,19
2022-11-20T10:25:23.239Z,18
2022-11-20T10:26:23.226Z,18
2022-11-20T10:27:23.296Z,17
2022-11-20T10:28:23.243Z,17
2022-11-20T10:29:23.641Z,17
2022-11-20T10:30:23.398Z,18
2022-11-20T10:31:23.223Z,18
2022-11-20T10:32:23.254Z,17
2022-11-20T10:33:23.231Z,18
2022-11-20T10:34:23.512Z,18
2022-11-20T10:35:23.258Z,18
2022-11-20T10:36:23.239Z,18
2022-11-20T10:37:23.289Z,18
2022-11-20T10:38:23.332Z,19
2022-11-20T10:39:23.548Z,17
2022-11-20T10:40:23.254Z,18
2022-11-20T10:41:23.231Z,18
2022-11-20T10:42:23.287Z,18
2022-11-20T10:43:23.235Z,19
2022-11-20T10:44:23.555Z,18
2022-11-20T10:45:23.276Z,18
2022-11-20T10:46:23.248Z,17
2022-11-20T10:47:23.253Z,18
2022-11-20T10:48:23.225Z,17
2022-11-20T10:49:23.509Z,17
2022-11-20T10:50:23.236Z,16
2022-11-20T10:51:23.227Z,17
2022-11-20T10:52:23.319Z,17
2022-11-20T10:53:23.471Z,17
2022-11-20T10:54:23.217Z,16
2022-11-20T10:55:23.220Z,18
2022-11-20T10:56:23.238Z,18
2022-11-20T10:57:23.224Z,18
2022-11-20T10:58:23.254Z,16
2022-11-20T10:59:23.413Z,17
2022-11-20T11:00:23.270Z,17
2022-11-20T11:01:23.294Z,16
2022-11-20T11:02:23.269Z,16
2022-11-20T11:03:23.224Z,16
2022-11-20T11:04:23.220Z,16
2022-11-20T11:05:23.228Z,17
2022-11-20T11:06:23.225Z,17
2022-11-20T11:07:23.384Z,18
2022-11-20T11:08:23.385Z,17
2022-11-20T11:09:23.544Z,16
2022-11-20T11:10:23.238Z,17
2022-11-20T11:11:23.243Z,17
2022-11-20T11:12:23.280Z,17
2022-11-20T11:13:23.249Z,17
2022-11-20T11:14:23.298Z,18
2022-11-20T11:15:23.231Z,18
2022-11-20T11:16:23.301Z,19
2022-11-20T11:17:23.292Z,17
2022-11-20T11:18:23.433Z,16
2022-11-20T11:19:23.477Z,21
2022-11-20T11:20:23.242Z,19
2022-11-20T11:21:23.232Z,19
2022-11-20T11:22:23.287Z,17
2022-11-20T11:23:23.257Z,16
2022-11-20T11:24:41.205Z,17
2022-11-20T11:25:23.486Z,16
2022-11-20T11:26:23.569Z,16
2022-11-20T11:27:23.636Z,17
2022-11-20T11:28:23.229Z,17
2022-11-20T11:29:23.340Z,16
2022-11-20T11:30:23.236Z,16
2022-11-20T11:31:23.241Z,17
2022-11-20T11:32:23.318Z,17
2022-11-20T11:33:23.265Z,17
2022-11-20T11:34:23.228Z,17
2022-11-20T11:35:23.229Z,17
2022-11-20T11:36:23.314Z,16
2022-11-20T11:37:23.253Z,14
2022-11-20T11:38:23.261Z,16
2022-11-20T11:39:23.467Z,15
2022-11-20T11:40:24.614Z,15
2022-11-20T11:41:23.228Z,16
2022-11-20T11:42:23.270Z,16
2022-11-20T11:43:23.220Z,16
2022-11-20T11:44:23.249Z,16
2022-11-20T11:45:23.218Z,16
2022-11-20T11:46:23.236Z,16
2022-11-20T11:47:23.295Z,17
2022-11-20T11:48:23.277Z,17
2022-11-20T11:49:23.413Z,15
2022-11-20T11:50:23.283Z,16
2022-11-20T11:51:23.237Z,16
2022-11-20T11:52:23.266Z,16
2022-11-20T11:53:23.249Z,16
2022-11-20T11:54:23.246Z,15
2022-11-20T11:55:23.268Z,16
2022-11-20T11:56:23.274Z,15
2022-11-20T11:57:23.263Z,15
2022-11-20T11:58:23.239Z,16
2022-11-20T11:59:23.433Z,17
2022-11-20T12:00:23.250Z,17
2022-11-20T12:01:23.285Z,16
2022-11-20T12:02:23.295Z,17
2022-11-20T12:03:23.284Z,16
2022-11-20T12:04:23.275Z,16
2022-11-20T12:05:23.218Z,20
2022-11-20T12:06:23.228Z,25
2022-11-20T12:07:45.647Z,18
2022-11-20T12:08:23.303Z,18
2022-11-20T12:09:23.538Z,17
2022-11-20T12:10:23.248Z,17
2022-11-20T12:11:23.298Z,18
2022-11-20T12:12:23.292Z,19
2022-11-20T12:13:23.244Z,18
2022-11-20T12:14:23.229Z,17
2022-11-20T12:15:23.238Z,18
2022-11-20T12:16:23.232Z,17
2022-11-20T12:17:23.266Z,18
2022-11-20T12:18:23.226Z,17
2022-11-20T12:19:23.460Z,17
2022-11-20T12:20:23.228Z,18
2022-11-20T12:21:23.248Z,17
2022-11-20T12:22:23.236Z,16
2022-11-20T12:23:23.321Z,17
2022-11-20T12:24:23.288Z,17
2022-11-20T12:25:23.231Z,16
2022-11-20T12:26:23.282Z,16
2022-11-20T12:27:23.314Z,15
2022-11-20T12:28:23.238Z,17
2022-11-20T12:29:23.491Z,16
2022-11-20T12:30:23.227Z,17
2022-11-20T12:31:23.219Z,16
2022-11-20T12:32:23.245Z,16
2022-11-20T12:33:23.239Z,16
2022-11-20T12:34:23.339Z,16
2022-11-20T12:35:23.265Z,16
2022-11-20T12:36:23.233Z,16
2022-11-20T12:37:23.273Z,15
2022-11-20T12:38:23.250Z,16
2022-11-20T12:39:23.598Z,17
2022-11-20T12:40:23.228Z,17
2022-11-20T12:41:23.238Z,17
2022-11-20T12:42:23.304Z,17
2022-11-20T12:43:23.272Z,16
2022-11-20T12:44:23.232Z,17
2022-11-20T12:45:23.220Z,17
2022-11-20T12:46:23.239Z,17
2022-11-20T12:47:23.257Z,16
2022-11-20T12:48:23.248Z,17
2022-11-20T12:49:23.461Z,17
2022-11-20T12:50:23.315Z,21
2022-11-20T12:51:23.288Z,24
2022-11-20T12:52:23.259Z,20
2022-11-20T12:53:23.277Z,17
2022-11-20T12:54:23.237Z,18
2022-11-20T12:55:23.236Z,23
2022-11-20T12:56:23.307Z,18
2022-11-20T12:57:23.252Z,17
2022-11-20T12:58:23.277Z,22
2022-11-20T12:59:23.419Z,22
2022-11-20T13:00:23.234Z,19
2022-11-20T13:01:23.273Z,19
2022-11-20T13:02:23.276Z,16
2022-11-20T13:03:23.240Z,17
2022-11-20T13:04:23.501Z,15
2022-11-20T13:05:23.217Z,17
2022-11-20T13:06:23.274Z,17
2022-11-20T13:07:23.295Z,16
2022-11-20T13:08:23.251Z,17
2022-11-20T13:09:23.225Z,17
2022-11-20T13:10:23.286Z,17
2022-11-20T13:11:23.221Z,17
2022-11-20T13:12:23.234Z,19
2022-11-20T13:13:23.231Z,21
2022-11-20T13:14:23.441Z,19
2022-11-20T13:15:23.229Z,21
2022-11-20T13:16:23.254Z,22
2022-11-20T13:17:23.257Z,23
2022-11-20T13:18:23.240Z,56
2022-11-20T13:19:23.237Z,93
2022-11-20T13:20:23.236Z,50
2022-11-20T13:21:23.328Z,32
2022-11-20T13:22:23.298Z,19
2022-11-20T13:23:23.254Z,18
2022-11-20T13:24:23.429Z,17
2022-11-20T13:25:23.220Z,18
2022-11-20T13:26:23.245Z,19
2022-11-20T13:27:23.256Z,16
2022-11-20T13:28:23.247Z,18
2022-11-20T13:29:23.281Z,17
2022-11-20T13:30:23.270Z,17
2022-11-20T13:31:23.238Z,17
2022-11-20T13:32:23.250Z,18
2022-11-20T13:33:23.227Z,16
2022-11-20T13:34:23.576Z,16
2022-11-20T13:35:23.278Z,17
2022-11-20T13:36:23.238Z,17
2022-11-20T13:37:23.313Z,18
2022-11-20T13:38:23.273Z,15
2022-11-20T13:39:23.235Z,15
2022-11-20T13:40:23.225Z,17
2022-11-20T13:41:23.235Z,17
2022-11-20T13:42:23.245Z,17
2022-11-20T13:43:23.244Z,17
2022-11-20T13:44:23.461Z,17
2022-11-20T13:45:23.282Z,17
2022-11-20T13:46:23.293Z,17
2022-11-20T13:47:23.301Z,16
2022-11-20T13:48:23.223Z,17
2022-11-20T13:49:23.228Z,17
2022-11-20T13:50:23.226Z,16
2022-11-20T13:51:23.241Z,19
2022-11-20T13:52:23.224Z,19
2022-11-20T13:53:23.292Z,17
2022-11-20T13:54:23.455Z,16
2022-11-20T13:55:23.331Z,17
2022-11-20T13:56:23.230Z,18
2022-11-20T13:57:23.319Z,16
2022-11-20T13:58:23.235Z,17
2022-11-20T13:59:23.225Z,17
2022-11-20T14:00:23.339Z,17
2022-11-20T14:01:23.308Z,17
2022-11-20T14:02:23.280Z,19
2022-11-20T14:03:50.801Z,19
2022-11-20T14:04:23.410Z,19
2022-11-20T14:05:23.218Z,20
2022-11-20T14:06:23.239Z,18
2022-11-20T14:07:23.278Z,19
2022-11-20T14:08:23.281Z,17
2022-11-20T14:09:23.267Z,17
2022-11-20T14:10:25.820Z,16
2022-11-20T14:11:23.231Z,15
2022-11-20T14:12:23.260Z,14
2022-11-20T14:13:23.234Z,16
2022-11-20T14:14:23.644Z,16
2022-11-20T14:15:23.220Z,15